createdAt,value
2019-03-02T00:01:13.423Z,44.40
2019-03-02T00:03:41.998Z,44.20
2019-03-02T00:06:10.789Z,44.20
2019-03-02T00:08:39.586Z,44.10
2019-03-02T00:11:08.468Z,44.10
2019-03-02T00:13:39.684Z,44.00
2019-03-02T00:16:08.522Z,44.10
2019-03-02T00:18:37.468Z,44.10
2019-03-02T00:21:06.332Z,44.80
2019-03-02T00:23:35.198Z,44.00
2019-03-02T00:26:06.176Z,43.90
2019-03-02T00:28:35.586Z,43.90
2019-03-02T00:31:04.554Z,43.90
2019-03-02T00:33:33.354Z,43.90
2019-03-02T00:36:02.162Z,44.00
2019-03-02T00:38:31.445Z,43.90
2019-03-02T00:41:00.249Z,44.00
2019-03-02T00:43:29.054Z,44.00
2019-03-02T00:45:57.848Z,43.80
2019-03-02T00:48:26.645Z,44.00
2019-03-02T00:50:55.443Z,44.00
2019-03-02T00:53:24.261Z,44.00
2019-03-02T00:55:53.060Z,43.90
2019-03-02T00:58:21.864Z,43.90
2019-03-02T01:00:53.655Z,43.90
2019-03-02T01:03:21.417Z,43.80
2019-03-02T01:05:50.372Z,43.90
2019-03-02T01:08:19.191Z,43.90
2019-03-02T01:10:48.014Z,43.90
2019-03-02T01:13:20.163Z,43.80
2019-03-02T01:15:47.482Z,43.90
2019-03-02T01:18:16.297Z,43.90
2019-03-02T01:20:45.165Z,43.90
2019-03-02T01:23:14.108Z,43.90
2019-03-02T01:25:45.496Z,43.90
2019-03-02T01:28:13.628Z,43.80
2019-03-02T01:30:42.595Z,43.90
2019-03-02T01:33:11.428Z,43.80
2019-03-02T01:35:40.317Z,43.80
2019-03-02T01:38:09.209Z,43.80
2019-03-02T01:40:40.785Z,43.70
2019-03-02T01:43:08.905Z,43.70
2019-03-02T01:45:37.717Z,43.70
2019-03-02T01:48:06.689Z,43.70
2019-03-02T01:50:35.579Z,43.70
2019-03-02T01:53:06.468Z,43.70
2019-03-02T01:55:35.250Z,43.70
2019-03-02T01:58:04.225Z,43.80
2019-03-02T02:00:33.268Z,43.70
2019-03-02T02:03:02.236Z,43.80
2019-03-02T02:05:32.037Z,43.80
2019-03-02T02:08:02.002Z,43.80
2019-03-02T02:10:31.085Z,43.80
2019-03-02T02:13:02.705Z,43.60
2019-03-02T02:15:30.931Z,43.60
2019-03-02T02:17:59.917Z,43.70
2019-03-02T02:20:28.825Z,43.70
2019-03-02T02:22:57.798Z,43.70
2019-03-02T02:25:26.756Z,43.60
2019-03-02T02:27:57.819Z,43.70
2019-03-02T02:30:27.476Z,43.70
2019-03-02T02:33:03.743Z,43.60
2019-03-02T02:35:27.946Z,43.60
2019-03-02T02:37:56.913Z,43.70
2019-03-02T02:40:25.974Z,43.70
2019-03-02T02:42:54.862Z,43.80
2019-03-02T02:45:23.945Z,43.80
2019-03-02T02:47:54.454Z,43.70
2019-03-02T02:50:29.088Z,43.80
2019-03-02T02:52:54.288Z,43.70
2019-03-02T02:55:23.097Z,43.70
2019-03-02T02:57:52.000Z,43.70
2019-03-02T03:00:22.514Z,43.70
2019-03-02T03:02:51.422Z,43.70
2019-03-02T03:05:20.403Z,43.70
2019-03-02T03:07:53.468Z,43.70
2019-03-02T03:10:32.649Z,43.70
2019-03-02T03:13:03.764Z,43.80
2019-03-02T03:15:38.817Z,43.80
2019-03-02T03:18:12.298Z,43.80
2019-03-02T03:20:38.490Z,43.70
2019-03-02T03:23:07.440Z,43.80
2019-03-02T03:25:36.499Z,43.80
2019-03-02T03:28:05.469Z,43.70
2019-03-02T03:30:38.793Z,43.70
2019-03-02T03:33:05.108Z,43.80
2019-03-02T03:35:34.131Z,43.80
2019-03-02T03:38:03.025Z,43.80
2019-03-02T03:40:31.980Z,43.70
2019-03-02T03:43:03.211Z,43.70
2019-03-02T03:45:31.521Z,43.70
2019-03-02T03:48:00.511Z,43.70
2019-03-02T03:50:29.525Z,43.70
2019-03-02T03:52:58.439Z,43.80
2019-03-02T03:55:27.681Z,43.80
2019-03-02T03:58:00.585Z,43.70
2019-03-02T04:00:27.524Z,43.80
2019-03-02T04:02:56.503Z,43.80
2019-03-02T04:05:25.330Z,43.80
2019-03-02T04:07:54.311Z,43.80
2019-03-02T04:10:25.822Z,43.80
2019-03-02T04:12:53.921Z,43.80
2019-03-02T04:15:23.290Z,43.80
2019-03-02T04:17:52.172Z,43.80
2019-03-02T04:20:27.229Z,43.80
2019-03-02T04:22:56.147Z,43.80
2019-03-02T04:25:25.072Z,43.80
2019-03-02T04:27:55.977Z,43.80
2019-03-02T04:30:30.682Z,43.90
2019-03-02T04:32:55.211Z,43.80
2019-03-02T04:35:24.112Z,43.80
2019-03-02T04:37:56.565Z,43.90
2019-03-02T04:40:27.927Z,43.90
2019-03-02T04:42:54.245Z,43.90
2019-03-02T04:45:23.136Z,43.90
2019-03-02T04:47:51.968Z,43.80
2019-03-02T04:50:23.523Z,43.80
2019-03-02T04:52:51.401Z,43.90
2019-03-02T04:55:20.220Z,43.80
2019-03-02T04:57:49.053Z,43.70
2019-03-02T05:00:17.954Z,43.70
2019-03-02T05:02:46.798Z,43.80
2019-03-02T05:05:15.765Z,43.90
2019-03-02T05:07:44.747Z,43.80
2019-03-02T05:10:13.723Z,43.70
2019-03-02T05:12:42.642Z,43.80
2019-03-02T05:15:15.979Z,43.80
2019-03-02T05:17:43.971Z,43.70
2019-03-02T05:20:13.052Z,43.70
2019-03-02T05:22:41.886Z,43.70
2019-03-02T05:25:10.872Z,43.70
2019-03-02T05:27:39.778Z,43.70
2019-03-02T05:30:09.462Z,43.70
2019-03-02T05:32:38.371Z,43.70
2019-03-02T05:35:07.366Z,43.80
2019-03-02T05:37:39.253Z,43.70
2019-03-02T05:40:07.089Z,43.70
2019-03-02T05:42:36.009Z,43.70
2019-03-02T05:45:05.269Z,43.80
2019-03-02T05:47:34.184Z,43.80
2019-03-02T05:50:03.012Z,43.80
2019-03-02T05:52:31.841Z,43.80
2019-03-02T05:55:00.663Z,43.70
2019-03-02T05:57:29.562Z,43.80
2019-03-02T06:00:01.395Z,43.80
2019-03-02T06:02:29.262Z,43.70
2019-03-02T06:04:58.174Z,43.70
2019-03-02T06:07:27.065Z,43.70
2019-03-02T06:09:55.909Z,43.70
2019-03-02T06:12:24.751Z,43.70
2019-03-02T06:14:53.584Z,43.80
2019-03-02T06:17:22.405Z,43.80
2019-03-02T06:19:51.321Z,43.80
2019-03-02T06:22:21.193Z,43.70
2019-03-02T06:24:50.805Z,43.60
2019-03-02T06:27:19.705Z,43.70
2019-03-02T06:29:48.537Z,43.70
2019-03-02T06:32:17.445Z,43.60
2019-03-02T06:34:46.266Z,43.70
2019-03-02T06:37:17.109Z,43.70
2019-03-02T06:39:45.725Z,43.70
2019-03-02T06:42:14.562Z,43.70
2019-03-02T06:44:43.453Z,43.80
2019-03-02T06:47:12.299Z,43.70
2019-03-02T06:49:41.124Z,43.60
2019-03-02T06:52:10.018Z,43.70
2019-03-02T06:54:38.846Z,43.60
2019-03-02T06:57:10.756Z,43.60
2019-03-02T06:59:39.391Z,43.60
2019-03-02T07:02:08.988Z,44.30
2019-03-02T07:04:37.893Z,43.60
2019-03-02T07:07:06.881Z,43.60
2019-03-02T07:09:35.774Z,43.70
2019-03-02T07:12:05.977Z,43.60
2019-03-02T07:14:35.398Z,43.60
2019-03-02T07:17:04.363Z,43.70
2019-03-02T07:19:48.701Z,43.70
2019-03-02T07:22:16.970Z,43.70
2019-03-02T07:24:46.780Z,43.70
2019-03-02T07:27:15.701Z,43.70
2019-03-02T07:29:44.593Z,44.40
2019-03-02T07:32:13.580Z,43.70
2019-03-02T07:34:43.661Z,44.40
2019-03-02T07:37:13.054Z,43.80
2019-03-02T07:39:41.874Z,43.70
2019-03-02T07:42:10.963Z,43.70
2019-03-02T07:44:39.773Z,43.70
2019-03-02T07:47:08.601Z,43.80
2019-03-02T07:49:37.447Z,43.70
2019-03-02T07:52:06.426Z,43.70
2019-03-02T07:54:38.847Z,43.70
2019-03-02T07:57:08.759Z,43.70
2019-03-02T07:59:36.818Z,43.70
2019-03-02T08:02:07.361Z,43.60
2019-03-02T08:04:38.582Z,43.60
2019-03-02T08:07:06.926Z,43.60
2019-03-02T08:09:35.747Z,43.60
2019-03-02T08:12:04.729Z,43.60
2019-03-02T08:14:33.628Z,43.60
2019-03-02T08:17:02.552Z,43.50
2019-03-02T08:19:31.518Z,43.60
2019-03-02T08:22:00.413Z,43.60
2019-03-02T08:24:29.325Z,43.60
2019-03-02T08:26:58.229Z,43.60
2019-03-02T08:29:27.055Z,43.60
2019-03-02T08:31:56.027Z,43.60
2019-03-02T08:34:24.916Z,43.50
2019-03-02T08:36:54.351Z,43.60
2019-03-02T08:39:24.389Z,43.60
2019-03-02T08:41:53.296Z,43.50
2019-03-02T08:44:22.278Z,43.50
2019-03-02T08:46:51.120Z,43.50
2019-03-02T08:49:20.114Z,43.50
2019-03-02T08:51:49.606Z,43.50
2019-03-02T08:54:21.498Z,43.50
2019-03-02T08:56:49.140Z,43.60
2019-03-02T08:59:18.038Z,43.60
2019-03-02T09:01:46.857Z,43.50
2019-03-02T09:04:15.901Z,43.50
2019-03-02T09:06:44.811Z,43.50
2019-03-02T09:09:13.776Z,43.70
2019-03-02T09:11:44.443Z,43.70
2019-03-02T09:14:13.561Z,43.60
2019-03-02T09:16:42.629Z,43.60
2019-03-02T09:19:11.561Z,43.70
2019-03-02T09:21:40.392Z,43.70
2019-03-02T09:24:12.611Z,43.80
2019-03-02T09:26:39.835Z,43.80
2019-03-02T09:29:08.733Z,44.40
2019-03-02T09:31:39.821Z,43.70
2019-03-02T09:34:08.763Z,43.70
2019-03-02T09:36:37.662Z,43.60
2019-03-02T09:39:08.262Z,43.60
2019-03-02T09:41:37.149Z,43.50
2019-03-02T09:44:06.129Z,43.50
2019-03-02T09:46:35.013Z,43.60
2019-03-02T09:49:03.989Z,43.50
2019-03-02T09:51:32.815Z,43.50
2019-03-02T09:54:01.814Z,43.50
2019-03-02T09:56:30.700Z,43.50
2019-03-02T09:59:01.657Z,43.50
2019-03-02T10:01:30.149Z,43.50
2019-03-02T10:04:03.103Z,43.50
2019-03-02T10:06:29.609Z,43.50
2019-03-02T10:08:58.505Z,43.40
2019-03-02T10:11:27.397Z,43.40
2019-03-02T10:13:56.228Z,43.30
2019-03-02T10:16:25.213Z,43.40
2019-03-02T10:18:54.035Z,43.40
2019-03-02T10:21:23.009Z,43.30
2019-03-02T10:23:51.968Z,43.30
2019-03-02T10:26:20.813Z,43.40
2019-03-02T10:28:49.709Z,43.30
2019-03-02T10:31:18.617Z,43.40
2019-03-02T10:33:47.531Z,43.40
2019-03-02T10:36:16.345Z,43.30
2019-03-02T10:38:45.176Z,43.30
2019-03-02T10:41:16.657Z,43.30
2019-03-02T10:43:45.593Z,43.40
2019-03-02T10:46:14.556Z,43.40
2019-03-02T10:48:43.469Z,43.30
2019-03-02T10:51:12.362Z,43.40
2019-03-02T10:53:41.273Z,43.40
2019-03-02T10:56:10.169Z,43.40
2019-03-02T10:58:39.859Z,43.40
2019-03-02T11:01:09.004Z,43.40
2019-03-02T11:03:37.901Z,43.40
2019-03-02T11:06:33.115Z,43.40
2019-03-02T11:09:36.433Z,43.50
2019-03-02T11:12:19.096Z,43.50
2019-03-02T11:15:00.357Z,43.50
2019-03-02T11:17:44.082Z,43.50
2019-03-02T11:20:32.080Z,43.50
2019-03-02T11:23:10.832Z,43.50
2019-03-02T11:25:59.686Z,43.50
2019-03-02T11:28:51.658Z,43.50
2019-03-02T11:31:31.537Z,43.60
2019-03-02T11:34:26.685Z,43.60
2019-03-02T11:37:04.510Z,43.70
2019-03-02T11:39:55.301Z,43.60
2019-03-02T11:42:41.729Z,43.70
2019-03-02T11:45:23.300Z,43.70
2019-03-02T11:48:17.231Z,43.60
2019-03-02T11:51:04.270Z,43.50
2019-03-02T11:53:52.075Z,43.60
2019-03-02T11:56:46.493Z,43.60
2019-03-02T11:59:45.359Z,43.50
2019-03-02T12:02:38.186Z,43.50
2019-03-02T12:05:28.657Z,43.50
2019-03-02T12:08:17.984Z,43.80
2019-03-02T12:11:10.547Z,43.90
2019-03-02T12:13:56.993Z,44.30
2019-03-02T12:16:34.601Z,44.10
2019-03-02T12:19:16.237Z,43.90
2019-03-02T12:22:01.537Z,43.90
2019-03-02T12:25:01.444Z,43.90
2019-03-02T12:27:42.371Z,43.80
2019-03-02T12:30:28.927Z,43.80
2019-03-02T12:33:11.138Z,43.80
2019-03-02T12:36:04.478Z,43.80
2019-03-02T12:38:50.815Z,43.80
2019-03-02T12:41:31.501Z,43.80
2019-03-02T12:44:25.294Z,43.70
2019-03-02T12:47:07.713Z,43.80
2019-03-02T12:49:58.682Z,43.70
2019-03-02T12:52:51.702Z,44.00
2019-03-02T12:55:39.123Z,44.00
2019-03-02T12:58:12.889Z,44.10
2019-03-02T13:00:51.933Z,44.10
2019-03-02T13:03:43.960Z,44.10
2019-03-02T13:06:25.096Z,44.00
2019-03-02T13:09:11.725Z,44.00
2019-03-02T13:12:08.776Z,44.20
2019-03-02T13:15:02.165Z,44.20
2019-03-02T13:17:55.922Z,44.30
2019-03-02T13:20:41.510Z,44.30
2019-03-02T13:23:39.007Z,44.30
2019-03-02T13:26:15.725Z,44.40
2019-03-02T13:29:01.109Z,44.50
2019-03-02T13:31:49.086Z,44.60
2019-03-02T13:34:33.110Z,44.50
2019-03-02T13:37:21.313Z,44.40
2019-03-02T13:39:58.701Z,44.30
2019-03-02T13:42:51.032Z,44.20
2019-03-02T13:45:28.009Z,44.10
2019-03-02T13:48:27.997Z,44.00
2019-03-02T13:51:10.308Z,44.00
2019-03-02T13:54:02.986Z,44.00
2019-03-02T13:57:01.052Z,44.00
2019-03-02T13:59:50.038Z,44.00
2019-03-02T14:02:47.201Z,44.00
2019-03-02T14:05:38.389Z,44.00
2019-03-02T14:08:18.568Z,44.00
2019-03-02T14:11:15.551Z,43.90
2019-03-02T14:14:03.704Z,44.00
2019-03-02T14:17:00.986Z,44.00
2019-03-02T14:19:54.937Z,43.90
2019-03-02T14:22:48.952Z,43.90
2019-03-02T14:25:40.023Z,44.00
2019-03-02T14:28:30.314Z,44.00
2019-03-02T14:31:05.657Z,44.10
2019-03-02T14:33:49.486Z,44.10
2019-03-02T14:36:40.538Z,44.10
2019-03-02T14:39:21.383Z,44.20
2019-03-02T14:42:08.641Z,44.30
2019-03-02T14:44:44.601Z,44.30
2019-03-02T14:47:36.592Z,44.30
2019-03-02T14:50:31.888Z,44.30
2019-03-02T14:53:28.734Z,44.30
2019-03-02T14:56:16.788Z,44.30
2019-03-02T14:58:56.722Z,44.30
2019-03-02T15:01:47.699Z,44.30
2019-03-02T15:04:42.983Z,44.40
2019-03-02T15:07:18.529Z,44.40
2019-03-02T15:10:10.649Z,44.40
2019-03-02T15:12:52.410Z,44.40
2019-03-02T15:15:40.284Z,44.40
2019-03-02T15:18:29.434Z,44.40
2019-03-02T15:21:16.101Z,44.40
2019-03-02T15:24:02.742Z,44.40
2019-03-02T15:26:39.350Z,45.20
2019-03-02T15:29:30.151Z,44.50
2019-03-02T15:32:27.297Z,44.50
2019-03-02T15:35:10.032Z,44.50
2019-03-02T15:38:05.090Z,44.50
2019-03-02T15:40:59.729Z,44.50
2019-03-02T15:43:36.053Z,44.50
2019-03-02T15:46:24.672Z,44.50
2019-03-02T15:49:27.509Z,44.50
2019-03-02T15:52:04.241Z,44.50
2019-03-02T15:54:45.738Z,44.50
2019-03-02T15:57:40.182Z,44.50
2019-03-02T16:00:29.057Z,44.50
2019-03-02T16:03:19.050Z,44.30
2019-03-02T16:06:04.516Z,44.50
2019-03-02T16:08:53.353Z,44.50
2019-03-02T16:11:41.584Z,44.50
2019-03-02T16:14:28.966Z,44.40
2019-03-02T16:17:17.664Z,44.50
2019-03-02T16:19:56.264Z,44.50
2019-03-02T16:22:50.886Z,44.50
2019-03-02T16:25:48.065Z,44.50
2019-03-02T16:28:27.468Z,44.50
2019-03-02T16:31:11.796Z,44.60
2019-03-02T16:33:58.205Z,44.60
2019-03-02T16:36:49.845Z,44.60
2019-03-02T16:39:39.177Z,44.60
2019-03-02T16:42:27.292Z,44.70
2019-03-02T16:45:14.100Z,45.30
2019-03-02T16:48:00.806Z,44.70
2019-03-02T16:50:50.016Z,44.70
2019-03-02T16:53:41.396Z,44.60
2019-03-02T16:56:22.747Z,44.60
2019-03-02T16:59:16.890Z,44.60
2019-03-02T17:02:02.844Z,44.60
2019-03-02T17:04:39.540Z,44.50
2019-03-02T17:07:23.395Z,45.20
2019-03-02T17:10:23.572Z,44.90
2019-03-02T17:13:02.260Z,45.20
2019-03-02T17:15:50.221Z,45.00
2019-03-02T17:18:29.721Z,44.90
2019-03-02T17:21:20.560Z,44.80
2019-03-02T17:23:56.101Z,44.70
2019-03-02T17:26:33.473Z,44.70
2019-03-02T17:29:24.397Z,44.70
2019-03-02T17:32:06.411Z,44.60
2019-03-02T17:34:53.025Z,44.60
2019-03-02T17:37:33.497Z,44.60
2019-03-02T17:40:13.008Z,44.50
2019-03-02T17:42:58.418Z,44.60
2019-03-02T17:45:35.378Z,44.60
2019-03-02T17:48:36.786Z,44.70
2019-03-02T17:51:18.050Z,44.60
2019-03-02T17:54:03.660Z,44.70
2019-03-02T17:56:50.915Z,44.70
2019-03-02T17:59:45.152Z,44.50
2019-03-02T18:02:31.297Z,44.60
2019-03-02T18:05:37.085Z,44.50
2019-03-02T18:08:14.720Z,44.80
2019-03-02T18:11:13.379Z,44.60
2019-03-02T18:13:55.440Z,44.60
2019-03-02T18:16:49.113Z,44.60
2019-03-02T18:19:18.041Z,44.50
2019-03-02T18:21:47.013Z,44.50
2019-03-02T18:24:15.921Z,44.50
2019-03-02T18:26:44.742Z,44.40
2019-03-02T18:29:13.578Z,44.50
2019-03-02T18:31:42.631Z,45.10
2019-03-02T18:34:14.633Z,44.40
2019-03-02T18:36:45.886Z,44.40
2019-03-02T18:39:14.237Z,44.40
2019-03-02T18:41:43.129Z,44.40
2019-03-02T18:44:12.047Z,44.40
2019-03-02T18:46:41.099Z,44.40
2019-03-02T18:49:24.918Z,44.50
2019-03-02T18:52:24.831Z,44.40
2019-03-02T18:54:53.668Z,44.60
2019-03-02T18:57:22.497Z,44.50
2019-03-02T18:59:51.480Z,44.50
2019-03-02T19:02:20.317Z,44.50
2019-03-02T19:04:49.901Z,44.50
2019-03-02T19:07:18.733Z,44.50
2019-03-02T19:09:47.629Z,44.60
2019-03-02T19:12:16.465Z,44.50
2019-03-02T19:14:45.288Z,44.60
2019-03-02T19:17:14.188Z,44.70
2019-03-02T19:19:43.178Z,44.70
2019-03-02T19:22:12.175Z,44.80
2019-03-02T19:24:41.096Z,44.70
2019-03-02T19:27:10.018Z,44.70
2019-03-02T19:29:38.936Z,44.70
2019-03-02T19:32:07.905Z,44.80
2019-03-02T19:34:36.767Z,44.80
2019-03-02T19:37:05.733Z,44.90
2019-03-02T19:39:34.717Z,44.90
2019-03-02T19:42:03.629Z,45.00
2019-03-02T19:44:32.546Z,45.00
2019-03-02T19:47:01.565Z,45.10
2019-03-02T19:49:30.392Z,45.00
2019-03-02T19:51:59.214Z,45.00
2019-03-02T19:54:28.041Z,45.10
2019-03-02T19:56:57.708Z,45.00
2019-03-02T19:59:27.454Z,45.10
2019-03-02T20:01:57.142Z,45.10
2019-03-02T20:04:26.329Z,45.10
2019-03-02T20:06:55.300Z,45.10
2019-03-02T20:09:24.281Z,45.10
2019-03-02T20:11:53.188Z,45.10
2019-03-02T20:14:22.082Z,45.00
2019-03-02T20:16:50.989Z,45.00
2019-03-02T20:19:19.973Z,45.00
2019-03-02T20:21:48.893Z,45.30
2019-03-02T20:24:17.725Z,44.90
2019-03-02T20:26:46.625Z,44.90
2019-03-02T20:29:15.537Z,45.00
2019-03-02T20:31:44.358Z,45.00
2019-03-02T20:34:13.205Z,45.00
2019-03-02T20:36:42.029Z,45.00
2019-03-02T20:39:11.017Z,45.00
2019-03-02T20:41:39.985Z,44.90
2019-03-02T20:44:08.997Z,44.90
2019-03-02T20:46:37.971Z,44.90
2019-03-02T20:49:06.806Z,45.00
2019-03-02T20:51:36.492Z,45.00
2019-03-02T20:54:06.086Z,45.00
2019-03-02T20:56:35.216Z,44.90
2019-03-02T20:59:04.897Z,44.90
2019-03-02T21:01:33.877Z,44.90
2019-03-02T21:04:02.761Z,45.50
2019-03-02T21:06:31.753Z,44.90
2019-03-02T21:09:00.648Z,44.90
2019-03-02T21:11:29.481Z,44.90
2019-03-02T21:13:58.285Z,44.90
2019-03-02T21:16:27.200Z,44.90
2019-03-02T21:18:56.178Z,44.90
2019-03-02T21:21:25.200Z,44.90
2019-03-02T21:23:54.075Z,44.90
2019-03-02T21:26:23.677Z,44.90
2019-03-02T21:28:53.418Z,44.90
2019-03-02T21:31:22.489Z,44.90
2019-03-02T21:33:51.401Z,44.90
2019-03-02T21:36:20.314Z,44.90
2019-03-02T21:38:49.154Z,44.90
2019-03-02T21:41:17.981Z,44.90
2019-03-02T21:43:46.909Z,44.90
2019-03-02T21:46:15.809Z,44.90
2019-03-02T21:48:44.716Z,44.90
2019-03-02T21:51:17.145Z,44.90
2019-03-02T21:53:46.130Z,44.90
2019-03-02T21:56:15.357Z,45.00
2019-03-02T21:58:44.331Z,44.90
2019-03-02T22:01:13.373Z,45.00
2019-03-02T22:03:42.313Z,45.00
2019-03-02T22:06:11.255Z,44.90
2019-03-02T22:08:40.213Z,45.00
2019-03-02T22:11:10.263Z,45.00
2019-03-02T22:13:39.082Z,45.00
2019-03-02T22:16:07.985Z,44.80
2019-03-02T22:18:36.888Z,44.80
2019-03-02T22:21:05.881Z,44.80
2019-03-02T22:23:34.770Z,44.90
2019-03-02T22:26:03.758Z,45.00
2019-03-02T22:28:32.653Z,45.00
2019-03-02T22:31:01.489Z,45.00
2019-03-02T22:33:30.399Z,45.00
2019-03-02T22:35:59.374Z,45.10
2019-03-02T22:38:28.290Z,45.10
2019-03-02T22:40:57.109Z,45.10
2019-03-02T22:43:25.956Z,45.00
2019-03-02T22:45:54.846Z,45.00
2019-03-02T22:48:23.681Z,45.20
2019-03-02T22:50:52.505Z,45.10
2019-03-02T22:53:21.421Z,45.10
2019-03-02T22:55:50.233Z,45.20
2019-03-02T22:58:19.048Z,45.20
2019-03-02T23:01:17.409Z,45.20
2019-03-02T23:03:44.866Z,45.20
2019-03-02T23:06:13.852Z,45.10
2019-03-02T23:08:43.509Z,45.10
2019-03-02T23:11:12.567Z,45.10
2019-03-02T23:13:42.171Z,45.10
2019-03-02T23:16:11.066Z,45.10
2019-03-02T23:18:40.665Z,45.10
2019-03-02T23:21:10.306Z,45.10
2019-03-02T23:23:40.072Z,45.10
2019-03-02T23:26:09.712Z,45.10
2019-03-02T23:28:38.607Z,45.20
2019-03-02T23:31:07.596Z,45.10
2019-03-02T23:33:36.485Z,45.10
2019-03-02T23:36:06.274Z,45.20
2019-03-02T23:38:35.343Z,45.10
2019-03-02T23:41:04.318Z,45.10
2019-03-02T23:43:33.294Z,45.10
2019-03-02T23:46:02.281Z,45.10
2019-03-02T23:48:31.189Z,45.10
2019-03-02T23:51:00.098Z,45.10
2019-03-02T23:53:29.073Z,45.00
2019-03-02T23:55:57.972Z,45.00
2019-03-02T23:58:26.989Z,45.00
